Time;durP1;ratioP1;P1;durP2;ratioP2;P2;SDS_P1;SDS_P2;PMS_P1;PMS_P2;Temp;Humidity;BMP_temperature;BMP_pressure;BME280_temperature;BME280_humidity;BME280_pressure;Samples;Min_cycle;Max_cycle;Signal;HPM_P1;HPM_P2
2023/08/09 00:02:46;;;;;;;;;;;;;;;;;;6184907;28;19918;-63
2023/08/09 00:05:46;;;;;;;;;;;;;;;;;;6184550;28;19934;-63
2023/08/09 00:08:46;;;;;;;;;;;;;;;;;;6184227;28;19935;-63
2023/08/09 00:11:46;;;;;;;;;;;;;;;;;;6188215;28;20000;-62
2023/08/09 00:14:47;;;;;;;;;;;;;;;;;;6185630;28;19925;-63
2023/08/09 00:17:47;;;;;;;;;;;;;;;;;;6184754;28;20028;-63
2023/08/09 00:20:47;;;;;;;;;;;;;;;;;;6181607;28;20282;-63
2023/08/09 00:23:47;;;;;;;;;;;;;;;;;;6186286;28;20055;-63
2023/08/09 00:26:47;;;;;;;;;;;;;;;;;;6191488;28;19917;-63
2023/08/09 00:29:47;;;;;;;;;;;;;;;;;;6190141;28;19969;-63
2023/08/09 00:32:48;;;;;;;;;;;;;;;;;;6182288;28;19913;-63
2023/08/09 00:35:48;;;;;;;;;;;;;;;;;;6186668;28;19979;-63
2023/08/09 00:38:48;;;;;;;;;;;;;;;;;;5838963;28;9999717;-63
2023/08/09 00:41:48;;;;;;;;;;;;;;;;;;6186415;28;19918;-63
2023/08/09 00:44:48;;;;;;;;;;;;;;;;;;6189017;28;19910;-63
2023/08/09 00:47:49;;;;;;;;;;;;;;;;;;6184819;28;20371;-62
2023/08/09 00:50:49;;;;;;;;;;;;;;;;;;6184187;28;20048;-63
2023/08/09 00:53:49;;;;;;;;;;;;;;;;;;6184948;28;19929;-62
2023/08/09 00:56:49;;;;;;;;;;;;;;;;;;6182130;28;19926;-63
2023/08/09 00:59:49;;;;;;;;;;;;;;;;;;6185572;28;20266;-63
2023/08/09 01:02:50;;;;;;;;;;;;;;;;;;6182371;28;20389;-64
2023/08/09 01:05:50;;;;;;;;;;;;;;;;;;6183727;28;20482;-63
2023/08/09 01:08:50;;;;;;;;;;;;;;;;;;6182629;28;19987;-63
2023/08/09 01:11:50;;;;;;;;;;;;;;;;;;6184351;28;19975;-63
2023/08/09 01:14:50;;;;;;;;;;;;;;;;;;6182182;28;19991;-62
2023/08/09 01:17:51;;;;;;;;;;;;;;;;;;6182547;28;19980;-62
2023/08/09 01:20:52;;;;;;;;;;;;;;;;;;6182538;28;19956;-62
2023/08/09 01:23:52;;;;;;;;;;;;;;;;;;6184275;28;19918;-62
2023/08/09 01:26:52;;;;;;;;;;;;;;;;;;6183295;28;19956;-62
2023/08/09 01:29:52;;;;;;;;;;;;;;;;;;6186224;28;19934;-62
2023/08/09 01:32:52;;;;;;;;;;;;;;;;;;6182988;28;20367;-62
2023/08/09 01:35:52;;;;;;;;;;;;;;;;;;6185022;28;20932;-62
2023/08/09 01:38:52;;;;;;;;;;;;;;;;;;6184788;28;19922;-63
2023/08/09 01:41:53;;;;;;;;;;;;;;;;;;6183068;28;20007;-64
2023/08/09 01:44:53;;;;;;;;;;;;;;;;;;6184563;28;19909;-63
2023/08/09 01:47:53;;;;;;;;;;;;;;;;;;6183074;28;19921;-63
2023/08/09 01:50:53;;;;;;;;;;;;;;;;;;6184283;28;19910;-64
2023/08/09 01:53:53;;;;;;;;;;;;;;;;;;6183323;28;20000;-64
2023/08/09 01:56:53;;;;;;;;;;;;;;;;;;6185869;28;19929;-63
2023/08/09 01:59:53;;;;;;;;;;;;;;;;;;6189018;28;19972;-64
2023/08/09 02:02:54;;;;;;;;;;;;;;;;;;6192956;28;20326;-63
2023/08/09 02:05:54;;;;;;;;;;;;;;;;;;6188087;28;20005;-62
2023/08/09 02:08:54;;;;;;;;;;;;;;;;;;6191306;28;20004;-63
2023/08/09 02:11:54;;;;;;;;;;;;;;;;;;6184708;28;19988;-62
2023/08/09 02:14:55;;;;;;;;;;;;;;;;;;6191533;28;20339;-63
2023/08/09 02:17:58;;;;;;;;;;;;;;;;;;6193264;28;19973;-63
2023/08/09 02:20:59;;;;;;;;;;;;;;;;;;6191826;28;19921;-66
2023/08/09 02:23:59;;;;;;;;;;;;;;;;;;6190463;28;20896;-63
2023/08/09 02:26:59;;;;;;;;;;;;;;;;;;6194408;28;19976;-63
2023/08/09 02:30:02;;;;;;;;;;;;;;;;;;6189798;28;20027;-62
2023/08/09 02:33:03;;;;;;;;;;;;;;;;;;6192872;28;20770;-63
2023/08/09 02:36:03;;;;;;;;;;;;;;;;;;6188880;28;20389;-63
2023/08/09 02:39:05;;;;;;;;;;;;;;;;;;6192792;28;19917;-63
2023/08/09 02:42:05;;;;;;;;;;;;;;;;;;6191640;28;19924;-62
2023/08/09 02:45:05;;;;;;;;;;;;;;;;;;6191463;28;19910;-63
2023/08/09 02:48:05;;;;;;;;;;;;;;;;;;6189637;28;20024;-63
2023/08/09 02:51:06;;;;;;;;;;;;;;;;;;6189557;28;19913;-63
2023/08/09 02:54:06;;;;;;;;;;;;;;;;;;6192245;28;20375;-63
2023/08/09 02:57:06;;;;;;;;;;;;;;;;;;6191735;28;19975;-62
2023/08/09 03:00:08;;;;;;;;;;;;;;;;;;6192681;28;19914;-63
2023/08/09 03:03:09;;;;;;;;;;;;;;;;;;6191843;28;20358;-62
2023/08/09 03:06:09;;;;;;;;;;;;;;;;;;6192620;28;19917;-62
2023/08/09 03:09:09;;;;;;;;;;;;;;;;;;6188205;28;19913;-62
2023/08/09 03:12:09;;;;;;;;;;;;;;;;;;6189007;28;20032;-62
2023/08/09 03:15:10;;;;;;;;;;;;;;;;;;6187903;28;19918;-63
2023/08/09 03:18:10;;;;;;;;;;;;;;;;;;6186077;28;19932;-62
2023/08/09 03:21:10;;;;;;;;;;;;;;;;;;6190329;28;19909;-62
2023/08/09 03:24:10;;;;;;;;;;;;;;;;;;6189921;28;19910;-62
2023/08/09 03:27:10;;;;;;;;;;;;;;;;;;6188879;28;19921;-62
2023/08/09 03:30:11;;;;;;;;;;;;;;;;;;6187484;28;19910;-62
2023/08/09 03:33:11;;;;;;;;;;;;;;;;;;6190745;28;19924;-62
2023/08/09 03:36:12;;;;;;;;;;;;;;;;;;6186498;28;20051;-63
2023/08/09 03:39:12;;;;;;;;;;;;;;;;;;6184734;28;20302;-62
2023/08/09 03:42:12;;;;;;;;;;;;;;;;;;6186690;28;19918;-62
2023/08/09 03:45:13;;;;;;;;;;;;;;;;;;6185684;28;20277;-62
2023/08/09 03:48:13;;;;;;;;;;;;;;;;;;6184111;28;20299;-62
2023/08/09 03:51:13;;;;;;;;;;;;;;;;;;6185680;28;19913;-62
2023/08/09 03:54:13;;;;;;;;;;;;;;;;;;6187250;28;20016;-62
2023/08/09 03:57:13;;;;;;;;;;;;;;;;;;6186145;28;19932;-63
2023/08/09 04:00:17;;;;;;;;;;;;;;;;;;6186628;28;19920;-61
2023/08/09 04:03:17;;;;;;;;;;;;;;;;;;6181317;28;20355;-61
2023/08/09 04:06:18;;;;;;;;;;;;;;;;;;6184413;28;19914;-61
2023/08/09 04:09:18;;;;;;;;;;;;;;;;;;6187981;28;19967;-61
2023/08/09 04:12:18;;;;;;;;;;;;;;;;;;6186344;28;19914;-62
2023/08/09 04:15:19;;;;;;;;;;;;;;;;;;6185598;28;20425;-63
2023/08/09 04:18:19;;;;;;;;;;;;;;;;;;6186289;28;19942;-62
2023/08/09 04:21:19;;;;;;;;;;;;;;;;;;6185647;28;19918;-62
2023/08/09 04:24:19;;;;;;;;;;;;;;;;;;6188282;28;20060;-62
2023/08/09 04:27:19;;;;;;;;;;;;;;;;;;6185450;28;19910;-62
2023/08/09 04:30:20;;;;;;;;;;;;;;;;;;6190780;28;19989;-62
2023/08/09 04:33:20;;;;;;;;;;;;;;;;;;6184386;28;19916;-63
2023/08/09 04:36:20;;;;;;;;;;;;;;;;;;6179910;28;20012;-62
2023/08/09 04:39:20;;;;;;;;;;;;;;;;;;6180986;28;19914;-63
2023/08/09 04:42:20;;;;;;;;;;;;;;;;;;6181434;28;20005;-63
2023/08/09 04:45:21;;;;;;;;;;;;;;;;;;6183371;28;19916;-61
2023/08/09 04:48:21;;;;;;;;;;;;;;;;;;6185424;28;19918;-64
2023/08/09 04:51:21;;;;;;;;;;;;;;;;;;6184845;28;20307;-63
2023/08/09 04:54:21;;;;;;;;;;;;;;;;;;6180000;28;19917;-62
2023/08/09 04:57:21;;;;;;;;;;;;;;;;;;6183964;28;19940;-62
2023/08/09 05:00:21;;;;;;;;;;;;;;;;;;6185440;28;19976;-62
2023/08/09 05:03:21;;;;;;;;;;;;;;;;;;6183859;28;19968;-62
2023/08/09 05:06:22;;;;;;;;;;;;;;;;;;6183398;28;19929;-63
2023/08/09 05:09:22;;;;;;;;;;;;;;;;;;6188938;28;19917;-63
2023/08/09 05:12:22;;;;;;;;;;;;;;;;;;6184586;28;20493;-62
2023/08/09 05:15:22;;;;;;;;;;;;;;;;;;6188892;28;19980;-64
2023/08/09 05:18:22;;;;;;;;;;;;;;;;;;6184170;28;19997;-63
2023/08/09 05:21:22;;;;;;;;;;;;;;;;;;6183972;28;19964;-63
2023/08/09 05:24:23;;;;;;;;;;;;;;;;;;6179855;28;20367;-63
2023/08/09 05:27:23;;;;;;;;;;;;;;;;;;6183736;28;19949;-63
2023/08/09 05:30:23;;;;;;;;;;;;;;;;;;6186793;28;19918;-64
2023/08/09 05:33:23;;;;;;;;;;;;;;;;;;6190016;28;19952;-63
2023/08/09 05:36:23;;;;;;;;;;;;;;;;;;6182299;28;20784;-64
2023/08/09 05:39:23;;;;;;;;;;;;;;;;;;6180251;28;19918;-63
2023/08/09 05:42:23;;;;;;;;;;;;;;;;;;6182882;28;19913;-64
2023/08/09 05:45:24;;;;;;;;;;;;;;;;;;6176545;28;19917;-63
2023/08/09 05:48:24;;;;;;;;;;;;;;;;;;6186224;28;19925;-63
2023/08/09 05:51:25;;;;;;;;;;;;;;;;;;6178175;28;20392;-63
2023/08/09 05:54:25;;;;;;;;;;;;;;;;;;6176649;28;19922;-62
2023/08/09 05:57:25;;;;;;;;;;;;;;;;;;6184297;28;19991;-63
2023/08/09 06:00:25;;;;;;;;;;;;;;;;;;6183463;28;19932;-63
2023/08/09 06:03:26;;;;;;;;;;;;;;;;;;6183263;28;20001;-62
2023/08/09 06:06:26;;;;;;;;;;;;;;;;;;6189834;28;19910;-64
2023/08/09 06:09:26;;;;;;;;;;;;;;;;;;6176986;28;19910;-64
2023/08/09 06:12:26;;;;;;;;;;;;;;;;;;6176752;28;20000;-65
2023/08/09 06:15:26;;;;;;;;;;;;;;;;;;6183141;28;20486;-62
2023/08/09 06:18:26;;;;;;;;;;;;;;;;;;5845911;28;10000278;-62
2023/08/09 06:21:26;;;;;;;;;;;;;;;;;;6190603;28;19924;-62
2023/08/09 06:24:26;;;;;;;;;;;;;;;;;;6176721;28;19932;-65
2023/08/09 06:27:26;;;;;;;;;;;;;;;;;;6177280;28;19917;-65
2023/08/09 06:30:27;;;;;;;;;;;;;;;;;;6175057;28;19909;-64
2023/08/09 06:33:30;;;;;;;;;;;;;;;;;;6171432;28;19997;-63
2023/08/09 06:36:30;;;;;;;;;;;;;;;;;;6176857;28;19921;-62
2023/08/09 06:39:30;;;;;;;;;;;;;;;;;;6180789;28;20008;-64
2023/08/09 06:42:30;;;;;;;;;;;;;;;;;;6179048;28;20312;-66
2023/08/09 06:45:30;;;;;;;;;;;;;;;;;;6179082;28;19914;-65
2023/08/09 06:48:31;;;;;;;;;;;;;;;;;;6181324;28;19956;-62
2023/08/09 06:51:31;;;;;;;;;;;;;;;;;;6184015;28;20706;-63
2023/08/09 06:54:31;;;;;;;;;;;;;;;;;;6178190;28;21926;-63
2023/08/09 06:57:31;;;;;;;;;;;;;;;;;;6184559;28;19929;-64
2023/08/09 07:00:31;;;;;;;;;;;;;;;;;;6178361;28;19913;-63
2023/08/09 07:03:32;;;;;;;;;;;;;;;;;;6193369;28;20008;-63
2023/08/09 07:06:32;;;;;;;;;;;;;;;;;;6194330;28;19925;-63
2023/08/09 07:09:32;;;;;;;;;;;;;;;;;;6196453;28;20004;-63
2023/08/09 07:12:33;;;;;;;;;;;;;;;;;;6194766;28;20039;-63
2023/08/09 07:15:34;;;;;;;;;;;;;;;;;;6216688;28;19937;-63
2023/08/09 07:18:34;;;;;;;;;;;;;;;;;;6206158;28;19913;-62
2023/08/09 07:21:34;;;;;;;;;;;;;;;;;;6195927;28;19920;-63
2023/08/09 07:24:34;;;;;;;;;;;;;;;;;;6191396;28;19918;-62
2023/08/09 07:27:34;;;;;;;;;;;;;;;;;;6194367;28;20043;-62
2023/08/09 07:30:34;;;;;;;;;;;;;;;;;;6196423;28;20044;-65
2023/08/09 07:33:34;;;;;;;;;;;;;;;;;;6192977;28;19925;-63
2023/08/09 07:36:34;;;;;;;;;;;;;;;;;;6194185;28;20020;-63
2023/08/09 07:39:35;;;;;;;;;;;;;;;;;;6194073;28;19917;-63
2023/08/09 07:42:35;;;;;;;;;;;;;;;;;;6196142;28;20334;-63
2023/08/09 07:45:35;;;;;;;;;;;;;;;;;;6195426;28;19967;-64
2023/08/09 07:48:35;;;;;;;;;;;;;;;;;;6204061;28;19968;-64
2023/08/09 07:51:36;;;;;;;;;;;;;;;;;;6192848;28;19910;-64
2023/08/09 07:54:36;;;;;;;;;;;;;;;;;;6175659;28;20035;-64
2023/08/09 07:57:36;;;;;;;;;;;;;;;;;;6180753;28;20429;-64
2023/08/09 08:00:36;;;;;;;;;;;;;;;;;;6194436;28;19910;-64
2023/08/09 08:03:36;;;;;;;;;;;;;;;;;;6191903;28;20274;-64
2023/08/09 08:06:38;;;;;;;;;;;;;;;;;;6201479;28;19925;-64
2023/08/09 08:09:41;;;;;;;;;;;;;;;;;;6195584;28;19918;-64
2023/08/09 08:12:41;;;;;;;;;;;;;;;;;;6193342;28;20526;-64
2023/08/09 08:15:41;;;;;;;;;;;;;;;;;;6194052;28;19944;-64
2023/08/09 08:18:41;;;;;;;;;;;;;;;;;;6190058;28;19963;-64
2023/08/09 08:21:42;;;;;;;;;;;;;;;;;;6196178;28;19918;-63
2023/08/09 08:24:42;;;;;;;;;;;;;;;;;;6195431;28;19967;-63
2023/08/09 08:27:45;;;;;;;;;;;;;;;;;;6194164;28;20339;-64
2023/08/09 08:30:45;;;;;;;;;;;;;;;;;;6193755;28;19968;-64
2023/08/09 08:33:45;;;;;;;;;;;;;;;;;;6193100;28;19910;-63
2023/08/09 08:36:46;;;;;;;;;;;;;;;;;;6191976;28;19988;-63
2023/08/09 08:39:46;;;;;;;;;;;;;;;;;;6209179;28;20000;-63
2023/08/09 08:42:46;;;;;;;;;;;;;;;;;;6199085;28;19912;-63
2023/08/09 08:45:50;;;;;;;;;;;;;;;;;;6191821;28;19952;-65
2023/08/09 08:48:50;;;;;;;;;;;;;;;;;;6193692;28;20454;-64
2023/08/09 08:51:52;;;;;;;;;;;;;;;;;;6191124;28;19929;-65
2023/08/09 08:54:53;;;;;;;;;;;;;;;;;;6190484;28;19913;-63
2023/08/09 08:57:53;;;;;;;;;;;;;;;;;;6192825;28;19976;-68
2023/08/09 09:00:53;;;;;;;;;;;;;;;;;;6191477;28;19919;-67
2023/08/09 09:03:54;;;;;;;;;;;;;;;;;;6191449;28;20374;-67
2023/08/09 09:06:54;;;;;;;;;;;;;;;;;;6193424;28;19913;-67
2023/08/09 09:09:54;;;;;;;;;;;;;;;;;;6194312;28;19936;-72
2023/08/09 09:12:55;;;;;;;;;;;;;;;;;;6201296;28;20000;-65
2023/08/09 09:15:56;;;;;;;;;;;;;;;;;;6194672;28;19992;-67
2023/08/09 09:18:57;;;;;;;;;;;;;;;;;;6187120;28;19914;-67
2023/08/09 09:21:57;;;;;;;;;;;;;;;;;;6186071;28;20255;-67
2023/08/09 09:25:00;;;;;;;;;;;;;;;;;;6191536;28;19940;-66
2023/08/09 09:28:00;;;;;;;;;;;;;;;;;;6192484;28;19948;-66
2023/08/09 09:31:00;;;;;;;;;;;;;;;;;;6207029;28;20748;-66
2023/08/09 09:34:00;;;;;;;;;;;;;;;;;;6186803;28;19914;-65
2023/08/09 09:37:00;;;;;;;;;;;;;;;;;;6188901;28;19926;-67
2023/08/09 09:40:00;;;;;;;;;;;;;;;;;;6186739;28;20585;-67
2023/08/09 09:43:01;;;;;;;;;;;;;;;;;;6187539;28;19960;-64
2023/08/09 09:46:01;;;;;;;;;;;;;;;;;;6189637;28;19914;-63
2023/08/09 09:49:01;;;;;;;;;;;;;;;;;;6191469;28;20084;-64
2023/08/09 09:52:03;;;;;;;;;;;;;;;;;;6192890;28;19921;-68
2023/08/09 09:55:03;;;;;;;;;;;;;;;;;;6185639;28;20366;-63
2023/08/09 09:58:03;;;;;;;;;;;;;;;;;;6192628;28;19965;-64
2023/08/09 10:01:03;;;;;;;;;;;;;;;;;;6191159;28;19976;-64
2023/08/09 10:04:06;;;;;;;;;;;;;;;;;;6191955;28;19960;-64
2023/08/09 10:07:07;;;;;;;;;;;;;;;;;;6188377;28;19941;-63
2023/08/09 10:10:07;;;;;;;;;;;;;;;;;;6181334;28;20001;-62
2023/08/09 10:13:09;;;;;;;;;;;;;;;;;;6178818;28;19914;-65
2023/08/09 10:16:10;;;;;;;;;;;;;;;;;;6178916;28;20064;-65
2023/08/09 10:19:11;;;;;;;;;;;;;;;;;;6192189;28;20327;-65
2023/08/09 10:22:12;;;;;;;;;;;;;;;;;;6207680;28;19913;-64
2023/08/09 10:25:13;;;;;;;;;;;;;;;;;;6190502;28;19921;-65
2023/08/09 10:28:13;;;;;;;;;;;;;;;;;;6196888;28;20278;-65
2023/08/09 10:31:13;;;;;;;;;;;;;;;;;;6196012;28;20373;-65
2023/08/09 10:34:13;;;;;;;;;;;;;;;;;;6183566;28;20004;-66
2023/08/09 10:37:13;;;;;;;;;;;;;;;;;;6195058;28;20404;-65
2023/08/09 10:40:18;;;;;;;;;;;;;;;;;;6196930;28;20460;-65
2023/08/09 10:43:18;;;;;;;;;;;;;;;;;;6197448;28;19945;-64
2023/08/09 10:46:18;;;;;;;;;;;;;;;;;;6197125;28;19920;-66
2023/08/09 10:49:19;;;;;;;;;;;;;;;;;;6196724;28;20266;-64
2023/08/09 10:52:19;;;;;;;;;;;;;;;;;;6187436;28;20291;-64
2023/08/09 10:55:19;;;;;;;;;;;;;;;;;;6191380;28;19944;-65
2023/08/09 10:58:19;;;;;;;;;;;;;;;;;;6196330;28;19913;-65
2023/08/09 11:01:20;;;;;;;;;;;;;;;;;;6195773;28;20001;-66
2023/08/09 11:04:20;;;;;;;;;;;;;;;;;;6193654;28;19924;-64
2023/08/09 11:07:20;;;;;;;;;;;;;;;;;;6196574;28;19909;-62
2023/08/09 11:10:20;;;;;;;;;;;;;;;;;;6193332;28;19921;-64
2023/08/09 11:13:20;;;;;;;;;;;;;;;;;;6213156;28;19913;-65
2023/08/09 11:16:20;;;;;;;;;;;;;;;;;;6196389;28;20268;-65
2023/08/09 11:19:20;;;;;;;;;;;;;;;;;;6195080;28;19909;-65
2023/08/09 11:22:21;;;;;;;;;;;;;;;;;;6188604;28;19914;-65
2023/08/09 11:25:21;;;;;;;;;;;;;;;;;;5837494;28;10000208;-64
2023/08/09 11:28:21;;;;;;;;;;;;;;;;;;6200173;28;19960;-65
2023/08/09 11:31:21;;;;;;;;;;;;;;;;;;6197648;28;19936;-66
2023/08/09 11:34:21;;;;;;;;;;;;;;;;;;6186076;28;19914;-65
2023/08/09 11:37:22;;;;;;;;;;;;;;;;;;6189880;28;20346;-65
2023/08/09 11:40:23;;;;;;;;;;;;;;;;;;6176189;28;19943;-65
2023/08/09 11:43:23;;;;;;;;;;;;;;;;;;6183470;28;19914;-65
2023/08/09 11:46:23;;;;;;;;;;;;;;;;;;6186372;28;19968;-65
2023/08/09 11:49:23;;;;;;;;;;;;;;;;;;6187218;28;19916;-65
2023/08/09 11:52:23;;;;;;;;;;;;;;;;;;6183741;28;19918;-65
2023/08/09 11:55:23;;;;;;;;;;;;;;;;;;6187692;28;20009;-65
2023/08/09 11:58:23;;;;;;;;;;;;;;;;;;6190134;28;19909;-65
2023/08/09 12:01:24;;;;;;;;;;;;;;;;;;6194397;28;19909;-66
2023/08/09 12:04:24;;;;;;;;;;;;;;;;;;6196368;28;20353;-66
2023/08/09 12:07:24;;;;;;;;;;;;;;;;;;6195997;28;20279;-66
2023/08/09 12:10:24;;;;;;;;;;;;;;;;;;6198294;28;20327;-66
2023/08/09 12:13:24;;;;;;;;;;;;;;;;;;6188771;28;19917;-66
2023/08/09 12:16:24;;;;;;;;;;;;;;;;;;6186797;28;19954;-65
2023/08/09 12:19:24;;;;;;;;;;;;;;;;;;6196378;28;19909;-66
2023/08/09 12:22:27;;;;;;;;;;;;;;;;;;6198168;28;19913;-66
2023/08/09 12:25:27;;;;;;;;;;;;;;;;;;6191879;28;19910;-65
2023/08/09 12:28:28;;;;;;;;;;;;;;;;;;6198180;28;19906;-66
2023/08/09 12:31:28;;;;;;;;;;;;;;;;;;6194835;28;20270;-65
2023/08/09 12:34:28;;;;;;;;;;;;;;;;;;6179465;28;19917;-63
2023/08/09 12:37:28;;;;;;;;;;;;;;;;;;6187451;28;19914;-64
2023/08/09 12:40:29;;;;;;;;;;;;;;;;;;6192113;28;19926;-62
2023/08/09 12:43:29;;;;;;;;;;;;;;;;;;6172699;28;19942;-63
2023/08/09 12:46:29;;;;;;;;;;;;;;;;;;6172966;28;19910;-63
2023/08/09 12:49:29;;;;;;;;;;;;;;;;;;6172538;28;20354;-64
2023/08/09 12:52:29;;;;;;;;;;;;;;;;;;6181060;28;19917;-63
2023/08/09 12:55:29;;;;;;;;;;;;;;;;;;6197025;28;19913;-63
2023/08/09 12:58:31;;;;;;;;;;;;;;;;;;6196470;28;19921;-63
2023/08/09 13:01:31;;;;;;;;;;;;;;;;;;6194723;28;19910;-61
2023/08/09 13:04:31;;;;;;;;;;;;;;;;;;6192951;28;20318;-62
2023/08/09 13:07:33;;;;;;;;;;;;;;;;;;6192362;28;19913;-61
2023/08/09 13:10:33;;;;;;;;;;;;;;;;;;6198500;28;20003;-62
2023/08/09 13:13:33;;;;;;;;;;;;;;;;;;6196557;28;19914;-65
2023/08/09 13:16:34;;;;;;;;;;;;;;;;;;6193745;28;19996;-62
2023/08/09 13:19:34;;;;;;;;;;;;;;;;;;6193247;28;19964;-61
2023/08/09 13:22:34;;;;;;;;;;;;;;;;;;6193195;28;20409;-61
2023/08/09 13:25:34;;;;;;;;;;;;;;;;;;5847430;28;10000290;-62
2023/08/09 13:28:34;;;;;;;;;;;;;;;;;;6194307;28;19914;-62
2023/08/09 13:31:35;;;;;;;;;;;;;;;;;;6196737;28;19918;-62
2023/08/09 13:34:35;;;;;;;;;;;;;;;;;;6194381;28;19914;-61
2023/08/09 13:37:35;;;;;;;;;;;;;;;;;;6196870;28;20321;-61
2023/08/09 13:40:35;;;;;;;;;;;;;;;;;;6192516;28;19924;-62
2023/08/09 13:43:35;;;;;;;;;;;;;;;;;;6193356;28;20425;-62
2023/08/09 13:46:35;;;;;;;;;;;;;;;;;;6188691;28;19984;-61
2023/08/09 13:49:35;;;;;;;;;;;;;;;;;;6189557;28;20091;-63
2023/08/09 13:52:35;;;;;;;;;;;;;;;;;;6192067;28;19933;-63
2023/08/09 13:55:36;;;;;;;;;;;;;;;;;;6189734;28;19935;-63
2023/08/09 13:58:36;;;;;;;;;;;;;;;;;;6191112;28;20362;-66
2023/08/09 14:01:37;;;;;;;;;;;;;;;;;;6194132;28;19964;-63
2023/08/09 14:04:37;;;;;;;;;;;;;;;;;;6190163;28;19910;-63
2023/08/09 14:07:37;;;;;;;;;;;;;;;;;;6191806;28;20047;-63
2023/08/09 14:10:38;;;;;;;;;;;;;;;;;;6187549;28;20281;-63
2023/08/09 14:13:38;;;;;;;;;;;;;;;;;;6194278;28;19964;-63
2023/08/09 14:16:38;;;;;;;;;;;;;;;;;;6186451;28;19913;-63
2023/08/09 14:19:39;;;;;;;;;;;;;;;;;;6192393;28;20378;-63
2023/08/09 14:22:39;;;;;;;;;;;;;;;;;;6195028;28;19998;-63
2023/08/09 14:25:41;;;;;;;;;;;;;;;;;;6191383;28;19909;-65
2023/08/09 14:28:41;;;;;;;;;;;;;;;;;;6195808;28;19952;-64
2023/08/09 14:31:41;;;;;;;;;;;;;;;;;;6191685;28;19910;-63
2023/08/09 14:34:41;;;;;;;;;;;;;;;;;;6190196;28;19910;-63
2023/08/09 14:37:41;;;;;;;;;;;;;;;;;;6217010;28;19910;-63
2023/08/09 14:40:41;;;;;;;;;;;;;;;;;;6210087;28;19922;-64
2023/08/09 14:43:41;;;;;;;;;;;;;;;;;;6194310;28;19988;-63
2023/08/09 14:46:41;;;;;;;;;;;;;;;;;;6192162;28;19937;-63
2023/08/09 14:49:41;;;;;;;;;;;;;;;;;;6189630;28;19953;-63
2023/08/09 14:52:42;;;;;;;;;;;;;;;;;;6199097;28;19921;-63
2023/08/09 14:55:43;;;;;;;;;;;;;;;;;;6194118;28;20274;-64
2023/08/09 15:02:10;;;;;;;;;;;;;;;;;;6166371;28;19912;-65
2023/08/09 15:05:17;;;;;;;;;;;;;;;;;;6193757;28;19988;-64
2023/08/09 15:08:20;;;;;;;;;;;;;;;;;;6198381;28;20381;-64
2023/08/09 15:11:20;;;;;;;;;;;;;;;;;;6194466;28;20028;-64
2023/08/09 15:14:21;;;;;;;;;;;;;;;;;;6194756;28;19913;-64
2023/08/09 15:17:21;;;;;;;;;;;;;;;;;;6196804;28;19914;-63
2023/08/09 15:20:21;;;;;;;;;;;;;;;;;;6196484;28;19937;-63
2023/08/09 15:23:21;;;;;;;;;;;;;;;;;;6190883;28;20247;-63
2023/08/09 15:26:21;;;;;;;;;;;;;;;;;;6200948;28;19992;-63
2023/08/09 15:29:21;;;;;;;;;;;;;;;;;;6199264;28;19910;-63
2023/08/09 15:32:21;;;;;;;;;;;;;;;;;;6191826;28;20025;-63
2023/08/09 15:35:22;;;;;;;;;;;;;;;;;;6195816;28;20027;-63
2023/08/09 15:38:22;;;;;;;;;;;;;;;;;;6198406;28;20277;-63
2023/08/09 15:41:42;;;;;;;;;;;;;;;;;;6197352;28;19920;-63
2023/08/09 15:44:42;;;;;;;;;;;;;;;;;;6197178;28;19964;-63
2023/08/09 15:47:43;;;;;;;;;;;;;;;;;;6191991;28;19917;-63
2023/08/09 15:50:44;;;;;;;;;;;;;;;;;;6187580;28;19913;-62
2023/08/09 15:53:44;;;;;;;;;;;;;;;;;;6196787;28;19940;-64
2023/08/09 15:56:44;;;;;;;;;;;;;;;;;;6196401;28;20744;-65
2023/08/09 15:59:44;;;;;;;;;;;;;;;;;;6194931;28;19945;-63
2023/08/09 16:02:44;;;;;;;;;;;;;;;;;;6196421;28;20029;-63
2023/08/09 16:05:45;;;;;;;;;;;;;;;;;;6193302;28;20324;-64
2023/08/09 16:08:45;;;;;;;;;;;;;;;;;;6198321;28;19910;-65
2023/08/09 16:11:45;;;;;;;;;;;;;;;;;;6193411;28;19917;-64
2023/08/09 16:14:46;;;;;;;;;;;;;;;;;;6197036;28;19916;-64
2023/08/09 16:17:46;;;;;;;;;;;;;;;;;;6194172;28;19968;-63
2023/08/09 16:20:46;;;;;;;;;;;;;;;;;;6195945;28;19994;-64
2023/08/09 16:23:46;;;;;;;;;;;;;;;;;;6197947;28;19949;-65
2023/08/09 16:26:46;;;;;;;;;;;;;;;;;;6197665;28;20030;-63
2023/08/09 16:29:46;;;;;;;;;;;;;;;;;;6196002;28;19917;-63
2023/08/09 16:32:47;;;;;;;;;;;;;;;;;;6194176;28;19914;-63
2023/08/09 16:35:47;;;;;;;;;;;;;;;;;;6193291;28;20060;-64
2023/08/09 16:38:47;;;;;;;;;;;;;;;;;;6192860;28;20220;-63
2023/08/09 16:41:47;;;;;;;;;;;;;;;;;;6175125;28;19929;-66
2023/08/09 16:44:47;;;;;;;;;;;;;;;;;;6182408;28;20035;-64
2023/08/09 16:47:47;;;;;;;;;;;;;;;;;;6179202;28;19969;-65
2023/08/09 16:50:47;;;;;;;;;;;;;;;;;;6180862;28;19920;-66
2023/08/09 16:53:47;;;;;;;;;;;;;;;;;;6175030;28;19949;-67
2023/08/09 16:56:47;;;;;;;;;;;;;;;;;;6176198;28;19945;-65
2023/08/09 16:59:47;;;;;;;;;;;;;;;;;;6172792;28;19917;-65
2023/08/09 17:02:48;;;;;;;;;;;;;;;;;;6176157;28;19993;-65
2023/08/09 17:05:48;;;;;;;;;;;;;;;;;;6174942;28;20071;-66
2023/08/09 17:08:48;;;;;;;;;;;;;;;;;;6172397;28;19917;-66
2023/08/09 17:11:48;;;;;;;;;;;;;;;;;;6180176;28;21232;-64
2023/08/09 17:14:48;;;;;;;;;;;;;;;;;;6176132;28;19910;-62
2023/08/09 17:17:48;;;;;;;;;;;;;;;;;;6174867;28;19917;-67
2023/08/09 17:20:48;;;;;;;;;;;;;;;;;;6173822;28;19914;-65
2023/08/09 17:23:48;;;;;;;;;;;;;;;;;;6186923;28;20347;-66
2023/08/09 17:26:49;;;;;;;;;;;;;;;;;;6193601;28;20310;-66
2023/08/09 17:29:49;;;;;;;;;;;;;;;;;;6182223;28;20665;-66
2023/08/09 17:32:49;;;;;;;;;;;;;;;;;;6176428;28;20031;-66
2023/08/09 17:35:49;;;;;;;;;;;;;;;;;;6176503;28;19914;-66
2023/08/09 17:38:49;;;;;;;;;;;;;;;;;;6178431;28;20016;-67
2023/08/09 17:41:49;;;;;;;;;;;;;;;;;;6174303;28;19920;-67
2023/08/09 17:44:50;;;;;;;;;;;;;;;;;;6176427;28;19967;-66
2023/08/09 17:47:50;;;;;;;;;;;;;;;;;;6181209;28;19918;-66
2023/08/09 17:50:50;;;;;;;;;;;;;;;;;;6183839;28;20412;-65
2023/08/09 17:53:50;;;;;;;;;;;;;;;;;;6178900;28;19964;-64
2023/08/09 17:56:50;;;;;;;;;;;;;;;;;;6181248;28;19918;-67
2023/08/09 17:59:50;;;;;;;;;;;;;;;;;;6182786;28;19964;-68
2023/08/09 18:02:50;;;;;;;;;;;;;;;;;;6177869;28;19949;-64
2023/08/09 18:05:50;;;;;;;;;;;;;;;;;;6176965;28;19910;-64
2023/08/09 18:08:51;;;;;;;;;;;;;;;;;;6175117;28;20287;-64
2023/08/09 18:11:51;;;;;;;;;;;;;;;;;;6179214;28;19925;-64
2023/08/09 18:14:51;;;;;;;;;;;;;;;;;;6185400;28;19980;-65
2023/08/09 18:17:51;;;;;;;;;;;;;;;;;;6183064;28;20385;-64
2023/08/09 18:20:51;;;;;;;;;;;;;;;;;;6181329;28;19913;-64
2023/08/09 18:23:52;;;;;;;;;;;;;;;;;;6180114;28;19917;-64
2023/08/09 18:26:52;;;;;;;;;;;;;;;;;;6175118;28;20378;-64
2023/08/09 18:29:52;;;;;;;;;;;;;;;;;;6177485;28;19917;-63
2023/08/09 18:32:52;;;;;;;;;;;;;;;;;;6179715;28;19910;-64
2023/08/09 18:35:55;;;;;;;;;;;;;;;;;;6174877;28;19961;-63
2023/08/09 18:38:55;;;;;;;;;;;;;;;;;;6174223;28;19936;-63
2023/08/09 18:41:55;;;;;;;;;;;;;;;;;;6184592;28;19914;-64
2023/08/09 18:44:55;;;;;;;;;;;;;;;;;;6184504;28;19917;-64
2023/08/09 18:47:55;;;;;;;;;;;;;;;;;;6183544;28;19917;-63
2023/08/09 18:50:56;;;;;;;;;;;;;;;;;;6184304;28;20897;-64
2023/08/09 18:53:56;;;;;;;;;;;;;;;;;;6179062;28;19938;-64
2023/08/09 18:56:56;;;;;;;;;;;;;;;;;;6188070;28;20370;-64
2023/08/09 18:59:56;;;;;;;;;;;;;;;;;;6181499;28;19926;-63
2023/08/09 19:02:56;;;;;;;;;;;;;;;;;;6179657;28;19913;-64
2023/08/09 19:05:56;;;;;;;;;;;;;;;;;;6182125;28;20235;-66
2023/08/09 19:08:57;;;;;;;;;;;;;;;;;;6185315;28;19933;-64
2023/08/09 19:11:57;;;;;;;;;;;;;;;;;;6176992;28;19909;-66
2023/08/09 19:14:57;;;;;;;;;;;;;;;;;;6182817;28;19925;-65
2023/08/09 19:17:57;;;;;;;;;;;;;;;;;;6182363;28;19914;-65
2023/08/09 19:20:57;;;;;;;;;;;;;;;;;;6181529;28;19941;-65
2023/08/09 19:23:57;;;;;;;;;;;;;;;;;;6187007;28;20000;-65
2023/08/09 19:26:58;;;;;;;;;;;;;;;;;;6195861;28;20417;-65
2023/08/09 19:29:59;;;;;;;;;;;;;;;;;;6191689;28;19917;-65
2023/08/09 19:33:00;;;;;;;;;;;;;;;;;;6176875;28;20747;-65
2023/08/09 19:36:00;;;;;;;;;;;;;;;;;;6179842;28;19981;-65
2023/08/09 19:39:00;;;;;;;;;;;;;;;;;;6188681;28;20040;-65
2023/08/09 19:42:01;;;;;;;;;;;;;;;;;;6183230;28;19949;-65
2023/08/09 19:45:02;;;;;;;;;;;;;;;;;;6173857;28;19932;-65
2023/08/09 19:48:04;;;;;;;;;;;;;;;;;;6180510;28;20262;-65
2023/08/09 19:51:04;;;;;;;;;;;;;;;;;;6176781;28;20291;-64
2023/08/09 19:54:04;;;;;;;;;;;;;;;;;;6180225;28;19929;-65
2023/08/09 19:57:04;;;;;;;;;;;;;;;;;;6176405;28;19925;-65
2023/08/09 20:00:11;;;;;;;;;;;;;;;;;;6183122;28;20756;-64
2023/08/09 20:03:11;;;;;;;;;;;;;;;;;;6185715;28;19976;-64
2023/08/09 20:06:12;;;;;;;;;;;;;;;;;;6180111;28;19941;-64
2023/08/09 20:09:12;;;;;;;;;;;;;;;;;;6180760;28;20389;-64
2023/08/09 20:12:13;;;;;;;;;;;;;;;;;;6188286;28;20017;-64
2023/08/09 20:15:13;;;;;;;;;;;;;;;;;;6193471;28;19959;-64
2023/08/09 20:18:13;;;;;;;;;;;;;;;;;;6186436;28;19918;-64
2023/08/09 20:21:13;;;;;;;;;;;;;;;;;;6190220;28;19917;-63
2023/08/09 20:24:13;;;;;;;;;;;;;;;;;;6180986;28;19935;-64
2023/08/09 20:27:13;;;;;;;;;;;;;;;;;;6181681;28;19999;-64
2023/08/09 20:30:14;;;;;;;;;;;;;;;;;;6180845;28;19924;-64
2023/08/09 20:33:14;;;;;;;;;;;;;;;;;;6182128;28;19925;-64